createdAt,value
2022-09-28T00:00:39.690Z,0
2022-09-28T00:01:43.084Z,0
2022-09-28T00:02:47.300Z,0
2022-09-28T00:04:22.527Z,0
2022-09-28T00:05:25.401Z,0
2022-09-28T00:06:28.336Z,0
2022-09-28T00:08:03.083Z,0
2022-09-28T00:09:05.683Z,0
2022-09-28T00:10:08.539Z,0
2022-09-28T00:11:43.448Z,0
2022-09-28T00:12:46.151Z,0
2022-09-28T00:13:48.888Z,0
2022-09-28T00:15:23.465Z,0
2022-09-28T00:16:26.618Z,0
2022-09-28T00:17:29.500Z,0
2022-09-28T00:19:04.270Z,0
2022-09-28T00:20:06.996Z,0
2022-09-28T00:21:09.705Z,0
2022-09-28T00:22:44.355Z,0
2022-09-28T00:23:47.039Z,0
2022-09-28T00:24:56.160Z,0
2022-09-28T00:26:30.706Z,0
2022-09-28T00:27:33.301Z,0
2022-09-28T00:28:36.175Z,0
2022-09-28T00:30:10.660Z,0
2022-09-28T00:31:13.545Z,0
2022-09-28T00:32:17.639Z,0
2022-09-28T00:33:52.502Z,0
2022-09-28T00:34:55.231Z,0
2022-09-28T00:35:57.943Z,0
2022-09-28T00:37:32.533Z,0
2022-09-28T00:38:35.243Z,0
2022-09-28T00:39:38.656Z,0
2022-09-28T00:41:13.511Z,0
2022-09-28T00:42:16.269Z,0
2022-09-28T00:43:19.117Z,0
2022-09-28T00:44:53.759Z,0
2022-09-28T00:45:56.997Z,0
2022-09-28T00:46:59.808Z,0
2022-09-28T00:48:34.394Z,0
2022-09-28T00:49:37.356Z,0
2022-09-28T00:50:40.007Z,0
2022-09-28T00:52:14.658Z,0
2022-09-28T00:53:17.399Z,0
2022-09-28T00:54:20.342Z,0
2022-09-28T00:55:54.811Z,0
2022-09-28T00:56:57.544Z,0
2022-09-28T00:58:00.302Z,0
2022-09-28T00:59:34.843Z,0
2022-09-28T01:00:40.739Z,0
2022-09-28T01:01:44.211Z,0
2022-09-28T01:02:47.531Z,0
2022-09-28T01:04:21.918Z,0
2022-09-28T01:05:24.659Z,0
2022-09-28T01:06:27.331Z,0
2022-09-28T01:08:01.941Z,0
2022-09-28T01:09:04.652Z,0
2022-09-28T01:10:07.308Z,0
2022-09-28T01:11:41.938Z,0
2022-09-28T01:12:44.565Z,0
2022-09-28T01:13:47.424Z,0
2022-09-28T01:15:22.349Z,0
2022-09-28T01:16:25.642Z,0
2022-09-28T01:17:28.409Z,0
2022-09-28T01:19:02.915Z,0
2022-09-28T01:20:05.651Z,0
2022-09-28T01:21:08.435Z,0
2022-09-28T01:22:42.874Z,0
2022-09-28T01:23:45.700Z,0
2022-09-28T01:24:48.459Z,0
2022-09-28T01:26:23.038Z,0
2022-09-28T01:27:25.736Z,0
2022-09-28T01:28:28.420Z,0
2022-09-28T01:30:02.936Z,0
2022-09-28T01:31:05.649Z,0
2022-09-28T01:32:08.740Z,0
2022-09-28T01:33:43.282Z,0
2022-09-28T01:34:46.110Z,0
2022-09-28T01:35:48.758Z,0
2022-09-28T01:37:23.209Z,0
2022-09-28T01:38:26.201Z,0
2022-09-28T01:39:29.158Z,0
2022-09-28T01:41:04.324Z,0
2022-09-28T01:42:07.055Z,0
2022-09-28T01:43:09.940Z,0
2022-09-28T01:44:44.560Z,0
2022-09-28T01:45:47.762Z,0
2022-09-28T01:46:50.746Z,0
2022-09-28T01:48:25.545Z,0
2022-09-28T01:49:28.613Z,0
2022-09-28T01:50:31.320Z,0
2022-09-28T01:52:05.884Z,0
2022-09-28T01:53:08.584Z,0
2022-09-28T01:54:11.273Z,0
2022-09-28T01:55:45.725Z,0
2022-09-28T01:56:48.634Z,0
2022-09-28T01:57:51.655Z,0
2022-09-28T01:59:26.522Z,0
2022-09-28T02:00:40.129Z,0
2022-09-28T02:01:43.224Z,0
2022-09-28T02:02:46.328Z,0
2022-09-28T02:04:20.672Z,0
2022-09-28T02:05:23.525Z,0
2022-09-28T02:06:26.236Z,0
2022-09-28T02:08:00.853Z,0
2022-09-28T02:09:03.582Z,0
2022-09-28T02:10:06.228Z,0
2022-09-28T02:11:40.595Z,0
2022-09-28T02:12:43.252Z,0
2022-09-28T02:13:45.924Z,0
2022-09-28T02:15:20.279Z,0
2022-09-28T02:16:23.636Z,0
2022-09-28T02:17:26.370Z,0
2022-09-28T02:19:00.916Z,0
2022-09-28T02:20:03.604Z,0
2022-09-28T02:21:06.306Z,0
2022-09-28T02:22:40.895Z,0
2022-09-28T02:23:43.598Z,0
2022-09-28T02:24:49.743Z,0
2022-09-28T02:26:24.400Z,0
2022-09-28T02:27:27.287Z,0
2022-09-28T02:28:29.965Z,0
2022-09-28T02:30:04.613Z,0
2022-09-28T02:31:07.389Z,0
2022-09-28T02:32:10.485Z,0
2022-09-28T02:33:45.051Z,0
2022-09-28T02:34:47.807Z,0
2022-09-28T02:35:50.574Z,0
2022-09-28T02:37:25.226Z,0
2022-09-28T02:38:28.067Z,0
2022-09-28T02:39:30.870Z,0
2022-09-28T02:41:05.797Z,0
2022-09-28T02:42:08.476Z,0
2022-09-28T02:43:11.201Z,0
2022-09-28T02:44:45.609Z,0
2022-09-28T02:45:48.912Z,0
2022-09-28T02:46:51.874Z,0
2022-09-28T02:48:55.727Z,0
2022-09-28T02:50:07.884Z,0
2022-09-28T02:51:10.580Z,0
2022-09-28T02:52:45.018Z,0
2022-09-28T02:53:47.715Z,0
2022-09-28T02:54:50.507Z,0
2022-09-28T02:56:25.124Z,0
2022-09-28T02:57:27.870Z,0
2022-09-28T02:58:30.594Z,0
2022-09-28T03:00:40.911Z,0
2022-09-28T03:01:44.250Z,0
2022-09-28T03:02:47.211Z,0
2022-09-28T03:04:21.679Z,0
2022-09-28T03:05:24.372Z,0
2022-09-28T03:06:27.099Z,0
2022-09-28T03:08:01.616Z,0
2022-09-28T03:09:04.381Z,0
2022-09-28T03:10:07.108Z,0
2022-09-28T03:11:41.622Z,0
2022-09-28T03:12:44.262Z,0
2022-09-28T03:13:46.912Z,0
2022-09-28T03:15:21.554Z,0
2022-09-28T03:16:24.689Z,0
2022-09-28T03:17:27.417Z,0
2022-09-28T03:19:01.942Z,0
2022-09-28T03:20:04.670Z,0
2022-09-28T03:21:07.337Z,0
2022-09-28T03:22:41.781Z,0
2022-09-28T03:23:53.604Z,0
2022-09-28T03:24:56.300Z,0
2022-09-28T03:26:30.753Z,0
2022-09-28T03:27:33.513Z,0
2022-09-28T03:28:36.223Z,0
2022-09-28T03:30:11.046Z,0
2022-09-28T03:31:14.224Z,0
2022-09-28T03:32:17.365Z,0
2022-09-28T03:33:51.913Z,0
2022-09-28T03:34:54.522Z,0
2022-09-28T03:35:57.266Z,0
2022-09-28T03:37:31.796Z,0
2022-09-28T03:38:34.501Z,0
2022-09-28T03:39:37.568Z,0
2022-09-28T03:41:12.371Z,0
2022-09-28T03:42:15.119Z,0
2022-09-28T03:43:17.814Z,0
2022-09-28T03:44:52.343Z,0
2022-09-28T03:45:55.561Z,0
2022-09-28T03:46:58.333Z,0
2022-09-28T03:48:42.654Z,0
2022-09-28T03:49:45.650Z,0
2022-09-28T03:50:48.346Z,0
2022-09-28T03:52:22.779Z,0
2022-09-28T03:53:25.428Z,0
2022-09-28T03:54:28.090Z,0
2022-09-28T03:56:03.664Z,0
2022-09-28T03:57:06.604Z,0
2022-09-28T03:58:09.491Z,0
2022-09-28T03:59:44.355Z,0
2022-09-28T04:00:40.160Z,0
2022-09-28T04:01:46.382Z,0
2022-09-28T04:02:49.714Z,0
2022-09-28T04:04:24.290Z,0
2022-09-28T04:06:09.729Z,0
2022-09-28T04:07:13.098Z,0
2022-09-28T04:08:15.977Z,0
2022-09-28T04:09:51.123Z,0
2022-09-28T04:10:54.486Z,0
2022-09-28T04:12:27.185Z,0
2022-09-28T04:14:02.264Z,0
2022-09-28T04:15:05.539Z,0
2022-09-28T04:16:09.062Z,0
2022-09-28T04:17:50.605Z,0
2022-09-28T04:18:53.649Z,0
2022-09-28T04:19:56.568Z,0
2022-09-28T04:21:31.796Z,0
2022-09-28T04:22:34.840Z,0
2022-09-28T04:23:37.709Z,0
2022-09-28T04:25:12.847Z,0
2022-09-28T04:26:15.892Z,0
2022-09-28T04:27:18.704Z,0
2022-09-28T04:28:53.519Z,0
2022-09-28T04:29:56.453Z,0
2022-09-28T04:30:59.359Z,0
2022-09-28T04:32:34.585Z,0
2022-09-28T04:33:37.706Z,0
2022-09-28T04:34:50.100Z,0
2022-09-28T04:36:25.314Z,0
2022-09-28T04:37:28.553Z,0
2022-09-28T04:38:59.857Z,0
2022-09-28T04:40:35.207Z,0
2022-09-28T04:41:38.371Z,0
2022-09-28T04:42:41.559Z,0
2022-09-28T04:44:16.460Z,0
2022-09-28T04:45:19.295Z,0
2022-09-28T04:46:22.928Z,0
2022-09-28T04:47:57.810Z,0
2022-09-28T04:49:00.861Z,0
2022-09-28T04:50:03.880Z,0
2022-09-28T04:51:39.268Z,0
2022-09-28T04:52:46.730Z,0
2022-09-28T04:53:49.786Z,0
2022-09-28T04:55:25.074Z,0
2022-09-28T04:56:27.867Z,0
2022-09-28T04:57:30.801Z,0
2022-09-28T04:59:09.911Z,0
2022-09-28T05:00:40.972Z,0
2022-09-28T05:01:44.686Z,0
2022-09-28T05:02:48.157Z,0
2022-09-28T05:04:26.332Z,0
2022-09-28T05:05:29.308Z,0
2022-09-28T05:06:32.170Z,0
2022-09-28T05:08:07.231Z,0
2022-09-28T05:09:10.545Z,0
2022-09-28T05:10:13.499Z,0
2022-09-28T05:11:48.468Z,0
2022-09-28T05:12:51.326Z,0
2022-09-28T05:13:54.516Z,0
2022-09-28T05:15:29.289Z,0
2022-09-28T05:16:34.495Z,0
2022-09-28T05:17:37.699Z,0
2022-09-28T05:19:12.638Z,0
2022-09-28T05:20:15.522Z,0
2022-09-28T05:21:18.862Z,0
2022-09-28T05:22:53.688Z,0
2022-09-28T05:23:57.345Z,0
2022-09-28T05:25:00.421Z,0
2022-09-28T05:26:35.776Z,0
2022-09-28T05:27:38.868Z,0
2022-09-28T05:28:41.955Z,0
2022-09-28T05:30:17.317Z,0
2022-09-28T05:31:20.678Z,0
2022-09-28T05:32:24.584Z,0
2022-09-28T05:33:59.422Z,0
2022-09-28T05:35:02.560Z,0
2022-09-28T05:36:13.186Z,0
2022-09-28T05:37:48.029Z,0
2022-09-28T05:38:51.030Z,0
2022-09-28T05:39:54.067Z,0
2022-09-28T05:41:34.929Z,0
2022-09-28T05:42:37.916Z,0
2022-09-28T05:43:40.881Z,0
2022-09-28T05:45:15.877Z,0
2022-09-28T05:46:24.396Z,0
2022-09-28T05:47:27.424Z,0
2022-09-28T05:49:02.430Z,0
2022-09-28T05:50:05.402Z,0
2022-09-28T05:51:08.283Z,0
2022-09-28T05:52:43.334Z,0
2022-09-28T05:53:46.592Z,0
2022-09-28T05:54:49.569Z,0
2022-09-28T05:56:24.551Z,0
2022-09-28T05:57:27.522Z,0
2022-09-28T05:58:31.126Z,0
2022-09-28T06:00:40.385Z,0
2022-09-28T06:01:44.332Z,0
2022-09-28T06:02:48.289Z,0
2022-09-28T06:04:24.707Z,0
2022-09-28T06:05:27.724Z,0
2022-09-28T06:06:30.797Z,0
2022-09-28T06:08:05.840Z,0
2022-09-28T06:09:08.989Z,0
2022-09-28T06:10:12.215Z,0
2022-09-28T06:11:46.801Z,0.435
2022-09-28T06:12:49.976Z,0
2022-09-28T06:13:52.888Z,0
2022-09-28T06:15:27.855Z,0
2022-09-28T06:16:31.287Z,0
2022-09-28T06:17:34.614Z,0
2022-09-28T06:19:09.791Z,0
2022-09-28T06:20:12.830Z,0.435
2022-09-28T06:21:15.797Z,0.435
2022-09-28T06:22:50.778Z,0
2022-09-28T06:24:00.241Z,0.435
2022-09-28T06:25:03.299Z,0.435
2022-09-28T06:26:38.557Z,0
2022-09-28T06:27:41.656Z,0.435
2022-09-28T06:28:44.635Z,0.435
2022-09-28T06:30:23.214Z,0.435
2022-09-28T06:31:27.120Z,0
2022-09-28T06:32:30.248Z,0.435
2022-09-28T06:34:05.472Z,0
2022-09-28T06:35:13.328Z,0.435
2022-09-28T06:36:16.622Z,0.435
2022-09-28T06:37:51.714Z,0.435
2022-09-28T06:38:54.782Z,0.435
2022-09-28T06:39:57.701Z,0.435
2022-09-28T06:41:33.160Z,0.435
2022-09-28T06:42:36.225Z,0.435
2022-09-28T06:43:45.382Z,0.435
2022-09-28T06:45:20.574Z,0.435
2022-09-28T06:46:24.432Z,0.435
2022-09-28T06:47:27.463Z,0.435
2022-09-28T06:49:02.606Z,0.585
2022-09-28T06:50:05.683Z,0.435
2022-09-28T06:51:08.820Z,0.585
2022-09-28T06:52:43.878Z,0.585
2022-09-28T06:53:46.771Z,0.435
2022-09-28T06:54:50.074Z,0.435
2022-09-28T06:56:28.281Z,0.585
2022-09-28T06:57:33.811Z,0.585
2022-09-28T06:58:37.177Z,0.585
2022-09-28T07:00:40.766Z,0.585
2022-09-28T07:01:44.617Z,0.585
2022-09-28T07:02:48.423Z,0.585
2022-09-28T07:04:24.410Z,0.585
2022-09-28T07:05:27.700Z,0.585
2022-09-28T07:06:30.592Z,0.585
2022-09-28T07:08:05.491Z,0.585
2022-09-28T07:09:59.130Z,0.585
2022-09-28T07:11:02.138Z,0.585
2022-09-28T07:12:37.183Z,0.585
2022-09-28T07:14:23.925Z,0.585
2022-09-28T07:15:37.337Z,0.735
2022-09-28T07:17:51.475Z,0.885
2022-09-28T07:18:58.172Z,0.885
2022-09-28T07:20:09.077Z,0.885
2022-09-28T07:22:34.890Z,1.02
2022-09-28T07:24:01.903Z,1.02
2022-09-28T07:25:04.863Z,1.02
2022-09-28T07:26:46.268Z,1.02
2022-09-28T07:27:55.175Z,1.02
2022-09-28T07:28:58.141Z,1.02
2022-09-28T07:30:33.886Z,1.32
2022-09-28T07:31:37.153Z,1.17
2022-09-28T07:32:40.285Z,1.17
2022-09-28T07:34:15.380Z,1.32
2022-09-28T07:35:21.910Z,1.32
2022-09-28T07:36:24.833Z,1.17
2022-09-28T07:38:00.011Z,1.17
2022-09-28T07:39:03.030Z,1.17
2022-09-28T07:40:05.919Z,1.32
2022-09-28T07:41:41.432Z,1.17
2022-09-28T07:42:44.374Z,1.17
2022-09-28T07:43:47.640Z,1.47
2022-09-28T07:45:22.706Z,1.17
2022-09-28T07:46:26.551Z,1.32
2022-09-28T07:47:34.725Z,1.17
2022-09-28T07:49:17.203Z,1.32
2022-09-28T07:50:20.311Z,1.32
2022-09-28T07:51:23.303Z,1.47
2022-09-28T07:52:58.282Z,1.32
2022-09-28T07:54:01.244Z,1.47
2022-09-28T07:55:08.987Z,1.32
2022-09-28T07:56:44.071Z,1.32
2022-09-28T07:57:47.250Z,1.32
2022-09-28T07:58:50.358Z,1.47
2022-09-28T08:00:45.254Z,1.47
2022-09-28T08:01:48.550Z,1.47
2022-09-28T08:02:52.091Z,1.32
2022-09-28T08:04:27.086Z,1.32
2022-09-28T08:05:30.027Z,1.32
2022-09-28T08:06:33.126Z,1.32
2022-09-28T08:08:08.724Z,1.47
2022-09-28T08:09:11.951Z,1.32
2022-09-28T08:10:15.177Z,1.47
2022-09-28T08:11:55.549Z,1.755
2022-09-28T08:13:00.703Z,1.905
2022-09-28T08:14:05.937Z,1.47
2022-09-28T08:15:41.055Z,1.47
2022-09-28T08:16:46.097Z,1.32
2022-09-28T08:17:50.501Z,1.32
2022-09-28T08:19:25.428Z,1.32
2022-09-28T08:20:28.698Z,1.47
2022-09-28T08:21:31.534Z,1.47
2022-09-28T08:23:06.634Z,1.47
2022-09-28T08:24:10.268Z,1.32
2022-09-28T08:25:13.741Z,1.47
2022-09-28T08:26:48.775Z,1.47
2022-09-28T08:27:51.700Z,1.47
2022-09-28T08:28:54.696Z,1.47
2022-09-28T08:30:29.920Z,1.47
2022-09-28T08:31:33.481Z,1.47
2022-09-28T08:32:36.313Z,1.47
2022-09-28T08:34:11.307Z,1.47
2022-09-28T08:35:14.423Z,1.32
2022-09-28T08:36:17.169Z,1.32
2022-09-28T08:37:59.007Z,1.47
2022-09-28T08:39:01.962Z,1.47
2022-09-28T08:40:05.068Z,1.47
2022-09-28T08:41:40.156Z,1.47
2022-09-28T08:42:43.460Z,1.47
2022-09-28T08:43:46.713Z,1.47
2022-09-28T08:45:23.197Z,1.755
2022-09-28T08:46:32.271Z,1.755
2022-09-28T08:47:35.572Z,1.755
2022-09-28T08:49:44.163Z,1.47
2022-09-28T08:50:47.152Z,1.755
2022-09-28T08:51:49.973Z,1.47
2022-09-28T08:53:24.943Z,1.755
2022-09-28T08:54:33.927Z,1.755
2022-09-28T08:55:36.855Z,1.755
2022-09-28T08:57:11.876Z,1.905
2022-09-28T08:58:14.852Z,2.19
2022-09-28T08:59:17.791Z,1.905
2022-09-28T09:00:40.217Z,1.755
2022-09-28T09:01:43.687Z,2.49
2022-09-28T09:02:47.337Z,2.19
2022-09-28T09:04:22.619Z,2.64
2022-09-28T09:05:26.156Z,2.64
2022-09-28T09:06:35.291Z,1.905
2022-09-28T09:08:10.267Z,2.19
2022-09-28T09:09:13.397Z,2.19
2022-09-28T09:10:16.664Z,2.49
2022-09-28T09:11:51.878Z,2.79
2022-09-28T09:12:55.086Z,2.49
2022-09-28T09:13:58.127Z,2.49
2022-09-28T09:15:33.068Z,2.49
2022-09-28T09:16:36.655Z,2.49
2022-09-28T09:17:39.885Z,2.925
2022-09-28T09:19:17.562Z,1.905
2022-09-28T09:20:20.703Z,2.19
2022-09-28T09:21:23.950Z,2.79
2022-09-28T09:22:59.480Z,1.755
2022-09-28T09:24:02.411Z,1.755
2022-09-28T09:25:05.436Z,1.47
2022-09-28T09:26:50.659Z,1.47
2022-09-28T09:27:53.465Z,1.47
2022-09-28T09:28:56.753Z,2.055
2022-09-28T09:30:38.754Z,2.055
2022-09-28T09:31:45.451Z,2.055
2022-09-28T09:32:48.543Z,2.055
2022-09-28T09:34:23.596Z,2.19
2022-09-28T09:35:31.736Z,2.34
2022-09-28T09:36:34.667Z,2.34
2022-09-28T09:38:15.290Z,2.49
2022-09-28T09:39:18.398Z,2.49
2022-09-28T09:40:21.837Z,2.34
2022-09-28T09:41:57.302Z,2.34
2022-09-28T09:43:00.249Z,2.34
2022-09-28T09:44:03.579Z,2.34
2022-09-28T09:45:38.827Z,2.34
2022-09-28T09:46:42.109Z,2.19
2022-09-28T09:47:45.227Z,2.19
2022-09-28T09:49:20.165Z,2.19
2022-09-28T09:50:29.732Z,2.19
2022-09-28T09:51:32.653Z,2.34
2022-09-28T09:53:12.512Z,2.34
2022-09-28T09:54:15.575Z,1.905
2022-09-28T09:55:18.632Z,2.34
2022-09-28T09:56:53.672Z,2.34
2022-09-28T09:57:56.935Z,2.49
2022-09-28T09:58:59.914Z,2.49
2022-09-28T10:00:40.823Z,2.64
2022-09-28T10:01:44.394Z,2.64
2022-09-28T10:02:47.784Z,2.925
2022-09-28T10:04:22.652Z,3.075
2022-09-28T10:05:25.750Z,3.225
2022-09-28T10:06:28.762Z,3.225
2022-09-28T10:08:06.174Z,3.66
2022-09-28T10:09:09.060Z,4.095
2022-09-28T10:10:12.132Z,4.095
2022-09-28T10:11:47.203Z,4.395
2022-09-28T10:12:50.436Z,4.095
2022-09-28T10:13:53.428Z,3.96
2022-09-28T10:15:28.373Z,3.66
2022-09-28T10:16:31.582Z,3.81
2022-09-28T10:17:34.660Z,2.925
2022-09-28T10:19:09.615Z,3.075
2022-09-28T10:20:12.673Z,3.81
2022-09-28T10:21:15.929Z,3.81
2022-09-28T10:22:50.997Z,3.81
2022-09-28T10:23:54.241Z,3.81
2022-09-28T10:24:57.571Z,3.81
2022-09-28T10:26:36.451Z,2.49
2022-09-28T10:27:39.648Z,2.49
2022-09-28T10:28:42.586Z,3.81
2022-09-28T10:30:18.286Z,3.81
2022-09-28T10:31:21.919Z,3.81
2022-09-28T10:32:25.023Z,3.96
2022-09-28T10:33:59.763Z,3.81
2022-09-28T10:35:08.041Z,3.225
2022-09-28T10:36:11.347Z,2.34
2022-09-28T10:37:46.113Z,1.47
2022-09-28T10:38:49.086Z,1.47
2022-09-28T10:39:52.285Z,1.755
2022-09-28T10:41:27.848Z,2.34
2022-09-28T10:42:30.874Z,2.19
2022-09-28T10:43:34.073Z,1.905
2022-09-28T10:45:12.441Z,2.79
2022-09-28T10:46:16.162Z,2.79
2022-09-28T10:47:19.321Z,2.79
2022-09-28T10:48:54.526Z,2.34
2022-09-28T10:50:03.892Z,1.905
2022-09-28T10:51:06.789Z,2.055
2022-09-28T10:52:41.989Z,2.055
2022-09-28T10:53:45.137Z,2.19
2022-09-28T10:54:48.521Z,2.34
2022-09-28T10:56:23.309Z,2.79
2022-09-28T10:57:30.454Z,2.79
2022-09-28T10:58:33.686Z,2.49
2022-09-28T11:00:40.858Z,2.49
2022-09-28T11:01:44.346Z,2.64
2022-09-28T11:02:53.023Z,2.64
2022-09-28T11:04:28.004Z,2.64
2022-09-28T11:05:31.465Z,2.49
2022-09-28T11:06:34.671Z,2.19
2022-09-28T11:08:10.181Z,2.19
2022-09-28T11:09:13.152Z,2.19
2022-09-28T11:10:17.256Z,2.19
2022-09-28T11:11:52.450Z,2.19
2022-09-28T11:12:55.305Z,2.34
2022-09-28T11:13:58.501Z,2.34
2022-09-28T11:15:33.385Z,2.34
2022-09-28T11:16:37.705Z,2.34
2022-09-28T11:17:41.214Z,2.34
2022-09-28T11:19:16.085Z,2.49
2022-09-28T11:20:22.418Z,2.34
2022-09-28T11:21:33.926Z,2.34
2022-09-28T11:23:10.522Z,2.19
2022-09-28T11:24:18.054Z,2.19
2022-09-28T11:25:22.075Z,2.055
2022-09-28T11:26:57.453Z,2.055
2022-09-28T11:28:00.487Z,2.055
2022-09-28T11:29:03.525Z,2.055
2022-09-28T11:30:38.893Z,2.19
2022-09-28T11:31:42.265Z,2.19
2022-09-28T11:32:45.242Z,2.34
2022-09-28T11:34:27.741Z,2.34
2022-09-28T11:35:39.504Z,2.49
2022-09-28T11:36:42.993Z,2.64
2022-09-28T11:38:18.148Z,2.64
2022-09-28T11:39:21.608Z,2.64
2022-09-28T11:40:24.872Z,2.64
2022-09-28T11:42:00.110Z,2.64
2022-09-28T11:43:03.365Z,2.64
2022-09-28T11:44:06.874Z,2.64
2022-09-28T11:45:48.177Z,2.64
2022-09-28T11:46:51.665Z,2.64
2022-09-28T11:47:54.684Z,2.64
2022-09-28T11:49:30.163Z,2.49
2022-09-28T11:50:40.495Z,2.34
2022-09-28T11:51:43.495Z,2.19
2022-09-28T11:53:18.767Z,2.055
2022-09-28T11:54:21.927Z,2.055
2022-09-28T11:55:24.967Z,2.19
2022-09-28T11:56:59.971Z,2.19
2022-09-28T11:58:03.070Z,2.19
2022-09-28T11:59:06.117Z,2.19
2022-09-28T12:00:40.113Z,2.34
2022-09-28T12:01:47.281Z,2.34
2022-09-28T12:02:51.597Z,2.34
2022-09-28T12:04:27.476Z,2.49
2022-09-28T12:05:37.650Z,2.49
2022-09-28T12:06:40.937Z,2.49
2022-09-28T12:08:15.998Z,2.49
2022-09-28T12:09:19.058Z,2.49
2022-09-28T12:10:22.250Z,2.49
2022-09-28T12:11:59.979Z,2.64
2022-09-28T12:13:03.014Z,2.64
2022-09-28T12:14:06.010Z,2.49
2022-09-28T12:17:04.167Z,2.64
2022-09-28T12:18:09.985Z,2.49
2022-09-28T12:19:13.327Z,2.34
2022-09-28T12:20:48.344Z,2.34
2022-09-28T12:21:53.003Z,2.34
2022-09-28T12:22:56.124Z,2.055
2022-09-28T12:24:31.584Z,2.055
2022-09-28T12:25:34.735Z,2.055
2022-09-28T12:26:43.675Z,2.055
2022-09-28T12:28:18.325Z,2.19
2022-09-28T12:29:21.623Z,2.34
2022-09-28T12:30:25.036Z,2.34
2022-09-28T12:32:00.469Z,2.49
2022-09-28T12:33:03.489Z,2.34
2022-09-28T12:34:06.783Z,2.34
2022-09-28T12:35:41.846Z,2.49
2022-09-28T12:36:44.841Z,2.49
2022-09-28T12:37:51.476Z,2.64
2022-09-28T12:40:19.962Z,2.49
2022-09-28T12:41:23.345Z,2.19
2022-09-28T12:42:26.524Z,2.19
2022-09-28T12:44:01.905Z,1.905
2022-09-28T12:45:10.763Z,1.755
2022-09-28T12:46:40.376Z,1.32
2022-09-28T12:48:15.911Z,1.17
2022-09-28T12:51:12.135Z,1.17
2022-09-28T12:52:15.223Z,0.885
2022-09-28T12:53:50.533Z,0.585
2022-09-28T12:54:53.806Z,0.435
2022-09-28T12:55:56.933Z,0.435
2022-09-28T12:57:36.118Z,0.435
2022-09-28T12:58:39.411Z,0.435
2022-09-28T12:59:42.817Z,0.435
2022-09-28T13:00:41.195Z,0.585
2022-09-28T13:01:44.787Z,0.585
2022-09-28T13:02:48.749Z,0.735
2022-09-28T13:04:29.601Z,1.17
2022-09-28T13:05:32.913Z,1.17
2022-09-28T13:06:35.933Z,1.32
2022-09-28T13:08:11.198Z,1.32
2022-09-28T13:09:14.499Z,1.47
2022-09-28T13:10:17.913Z,1.32
2022-09-28T13:11:53.255Z,1.32
2022-09-28T13:12:56.273Z,1.17
2022-09-28T13:13:59.507Z,1.17
2022-09-28T13:15:34.567Z,1.17
2022-09-28T13:16:38.073Z,1.32
2022-09-28T13:17:41.245Z,1.32
2022-09-28T13:19:16.058Z,1.32
2022-09-28T13:20:18.896Z,1.47
2022-09-28T13:21:22.156Z,1.47
2022-09-28T13:23:01.309Z,1.32
2022-09-28T13:24:37.199Z,1.47
2022-09-28T13:25:40.301Z,1.47
2022-09-28T13:27:15.779Z,1.47
2022-09-28T13:28:18.954Z,1.17
2022-09-28T13:29:22.156Z,1.17
2022-09-28T13:31:01.333Z,1.17
2022-09-28T13:32:08.324Z,1.17
2022-09-28T13:33:11.525Z,1.17
2022-09-28T13:34:46.611Z,1.17
2022-09-28T13:35:49.817Z,1.17
2022-09-28T13:36:59.140Z,1.32
2022-09-28T13:38:34.181Z,1.32
2022-09-28T13:39:37.297Z,1.32
2022-09-28T13:40:40.915Z,1.32
2022-09-28T13:42:16.037Z,1.32
2022-09-28T13:43:25.036Z,1.32
2022-09-28T13:44:28.294Z,1.47
2022-09-28T13:46:04.010Z,1.32
2022-09-28T13:47:07.259Z,1.905
2022-09-28T13:48:10.482Z,2.055
2022-09-28T13:49:45.556Z,1.905
2022-09-28T13:50:48.800Z,1.905
2022-09-28T13:51:51.999Z,1.905
2022-09-28T13:53:26.795Z,1.755
2022-09-28T13:54:30.334Z,1.905
2022-09-28T13:55:33.591Z,1.755
2022-09-28T13:57:08.737Z,1.905
2022-09-28T13:58:11.880Z,1.905
2022-09-28T13:59:14.990Z,1.905
2022-09-28T14:00:40.491Z,1.905
2022-09-28T14:01:44.252Z,2.055
2022-09-28T14:02:48.158Z,1.905
2022-09-28T14:04:23.390Z,1.905
2022-09-28T14:05:26.567Z,1.905
2022-09-28T14:06:29.942Z,1.905
2022-09-28T14:08:14.195Z,2.055
2022-09-28T14:09:17.353Z,2.055
2022-09-28T14:10:20.706Z,1.905
2022-09-28T14:11:55.763Z,1.755
2022-09-28T14:12:58.987Z,1.47
2022-09-28T14:14:02.093Z,0.885
2022-09-28T14:15:37.689Z,1.17
2022-09-28T14:16:41.047Z,0.585
2022-09-28T14:17:43.865Z,0.435
2022-09-28T14:19:19.106Z,0.435
2022-09-28T14:20:22.249Z,0.585
2022-09-28T14:21:25.445Z,0.435
2022-09-28T14:23:00.577Z,0.435
2022-09-28T14:24:10.964Z,0.435
2022-09-28T14:25:14.150Z,0.435
2022-09-28T14:26:49.208Z,0.435
2022-09-28T14:27:52.389Z,0.435
2022-09-28T14:28:55.641Z,0.585
2022-09-28T14:30:31.217Z,0.585
2022-09-28T14:31:35.143Z,0.585
2022-09-28T14:32:38.249Z,0.585
2022-09-28T14:34:13.301Z,0.735
2022-09-28T14:35:18.784Z,0.585
2022-09-28T14:36:22.106Z,0.735
2022-09-28T14:37:57.061Z,0.885
2022-09-28T14:39:00.297Z,0.885
2022-09-28T14:40:03.433Z,1.02
2022-09-28T14:41:39.006Z,1.02
2022-09-28T14:42:42.300Z,1.02
2022-09-28T14:43:45.522Z,1.02
2022-09-28T14:45:28.920Z,1.32
2022-09-28T14:46:32.642Z,1.32
2022-09-28T14:47:35.979Z,1.32
2022-09-28T14:49:10.906Z,1.32
2022-09-28T14:50:20.349Z,1.32
2022-09-28T14:51:23.560Z,1.47
2022-09-28T14:52:58.722Z,1.32
2022-09-28T14:54:02.059Z,1.32
2022-09-28T14:55:05.096Z,1.17
2022-09-28T14:56:44.204Z,1.17
2022-09-28T14:57:47.434Z,1.17
2022-09-28T14:58:50.495Z,1.02
2022-09-28T15:00:40.104Z,1.02
2022-09-28T15:01:42.958Z,1.02
2022-09-28T15:02:46.223Z,0.885
2022-09-28T15:04:28.046Z,1.02
2022-09-28T15:05:32.459Z,0.885
2022-09-28T15:06:35.954Z,1.02
2022-09-28T15:08:11.062Z,0.885
2022-09-28T15:09:14.302Z,0.885
2022-09-28T15:10:17.494Z,0.885
2022-09-28T15:11:52.583Z,0.885
2022-09-28T15:12:55.357Z,0.885
2022-09-28T15:13:58.591Z,0.885
2022-09-28T15:15:34.284Z,0.885
2022-09-28T15:16:37.518Z,0.885
2022-09-28T15:17:45.711Z,0.735
2022-09-28T15:19:20.641Z,0.735
2022-09-28T15:20:23.957Z,0.885
2022-09-28T15:21:27.152Z,0.735
2022-09-28T15:23:02.240Z,0.735
2022-09-28T15:24:05.473Z,0.885
2022-09-28T15:25:13.378Z,0.735
2022-09-28T15:26:48.598Z,0.735
2022-09-28T15:27:51.707Z,0.885
2022-09-28T15:28:55.049Z,0.735
2022-09-28T15:30:29.867Z,0.885
2022-09-28T15:31:34.081Z,0.735
2022-09-28T15:32:37.350Z,0.885
2022-09-28T15:34:13.255Z,0.885
2022-09-28T15:35:16.546Z,0.735
2022-09-28T15:36:19.575Z,0.735
2022-09-28T15:37:57.779Z,0.885
2022-09-28T15:39:00.983Z,0.885
2022-09-28T15:40:04.398Z,0.735
2022-09-28T15:41:39.577Z,0.735
2022-09-28T15:42:42.614Z,0.585
2022-09-28T15:43:45.972Z,0.735
2022-09-28T15:45:21.273Z,0.585
2022-09-28T15:46:25.058Z,0.585
2022-09-28T15:47:28.159Z,0.585
2022-09-28T15:49:03.227Z,0.585
2022-09-28T15:50:07.428Z,0.585
2022-09-28T15:51:10.540Z,0.585
2022-09-28T15:52:45.698Z,0.585
2022-09-28T15:53:49.296Z,0.435
2022-09-28T15:54:52.604Z,0.435
2022-09-28T15:56:27.925Z,0.435
2022-09-28T15:57:31.089Z,0.435
2022-09-28T15:58:33.969Z,0.435
2022-09-28T16:00:41.103Z,0.435
2022-09-28T16:01:44.815Z,0.435
2022-09-28T16:02:48.749Z,0.435
2022-09-28T16:04:23.979Z,0
2022-09-28T16:06:10.327Z,0
2022-09-28T16:07:13.569Z,0.435
2022-09-28T16:08:23.212Z,0
2022-09-28T16:10:03.796Z,0
2022-09-28T16:11:06.956Z,0.435
2022-09-28T16:12:10.051Z,0.435
2022-09-28T16:13:45.141Z,0.435
2022-09-28T16:14:48.345Z,0.435
2022-09-28T16:15:52.100Z,0.435
2022-09-28T16:17:27.597Z,0.435
2022-09-28T16:18:30.735Z,0.435
2022-09-28T16:19:34.493Z,0.435
2022-09-28T16:21:09.508Z,0.435
2022-09-28T16:22:12.522Z,0.435
2022-09-28T16:23:15.503Z,0.435
2022-09-28T16:24:50.780Z,0.435
2022-09-28T16:25:53.914Z,0
2022-09-28T16:26:57.195Z,0
2022-09-28T16:28:34.390Z,0.435
2022-09-28T16:29:37.891Z,0
2022-09-28T16:30:41.117Z,0
2022-09-28T16:32:16.783Z,0.435
2022-09-28T16:33:19.891Z,0
2022-09-28T16:34:28.481Z,0
2022-09-28T16:36:03.577Z,0
2022-09-28T16:37:06.720Z,0.435
2022-09-28T16:38:09.713Z,0
2022-09-28T16:39:44.825Z,0
2022-09-28T16:40:48.558Z,0
2022-09-28T16:41:51.712Z,0
2022-09-28T16:43:27.217Z,0
2022-09-28T16:44:30.715Z,0
2022-09-28T16:45:33.829Z,0
2022-09-28T16:47:09.745Z,0
2022-09-28T16:48:12.942Z,0
2022-09-28T16:49:16.200Z,0
2022-09-28T16:50:51.501Z,0
2022-09-28T16:51:54.816Z,0
2022-09-28T16:53:03.635Z,0
2022-09-28T16:54:39.034Z,0
2022-09-28T16:56:08.146Z,0
2022-09-28T16:57:11.045Z,0
2022-09-28T16:58:46.242Z,0
2022-09-28T16:59:49.448Z,0
2022-09-28T17:00:40.442Z,0
2022-09-28T17:01:44.126Z,0
2022-09-28T17:03:14.987Z,0
2022-09-28T17:04:53.516Z,0
2022-09-28T17:05:56.843Z,0
2022-09-28T17:06:59.825Z,0
2022-09-28T17:08:34.958Z,0
2022-09-28T17:09:38.121Z,0
2022-09-28T17:11:20.168Z,0
2022-09-28T17:12:57.969Z,0
2022-09-28T17:14:01.163Z,0
2022-09-28T17:15:04.418Z,0
2022-09-28T17:23:34.842Z,0
2022-09-28T17:24:38.879Z,0
2022-09-28T17:25:42.312Z,0